sensor_id;sensor_type;location;lat;lon;timestamp;temperature;humidity
22558;DHT22;11445;53.816;8.902;2022-12-16T00:01:07;0.20;99.90
22558;DHT22;11445;53.816;8.902;2022-12-16T00:03:36;0.20;99.90
22558;DHT22;11445;53.816;8.902;2022-12-16T00:06:04;0.20;99.90
22558;DHT22;11445;53.816;8.902;2022-12-16T00:08:33;0.20;99.90
22558;DHT22;11445;53.816;8.902;2022-12-16T00:11:02;0.20;99.90
22558;DHT22;11445;53.816;8.902;2022-12-16T00:13:30;0.20;99.90
22558;DHT22;11445;53.816;8.902;2022-12-16T00:15:58;0.20;99.90
22558;DHT22;11445;53.816;8.902;2022-12-16T00:18:25;0.10;99.90
22558;DHT22;11445;53.816;8.902;2022-12-16T00:20:54;0.10;99.90
22558;DHT22;11445;53.816;8.902;2022-12-16T00:23:21;0.10;99.90
22558;DHT22;11445;53.816;8.902;2022-12-16T00:25:48;0.10;99.90
22558;DHT22;11445;53.816;8.902;2022-12-16T00:28:16;0.10;99.90
22558;DHT22;11445;53.816;8.902;2022-12-16T00:30:47;0.10;99.90
22558;DHT22;11445;53.816;8.902;2022-12-16T00:33:15;0.00;99.90
22558;DHT22;11445;53.816;8.902;2022-12-16T00:35:43;0.10;99.90
22558;DHT22;11445;53.816;8.902;2022-12-16T00:38:11;0.00;99.90
22558;DHT22;11445;53.816;8.902;2022-12-16T00:40:38;0.10;99.90
22558;DHT22;11445;53.816;8.902;2022-12-16T00:43:05;0.00;99.90
22558;DHT22;11445;53.816;8.902;2022-12-16T00:45:32;0.00;99.90
22558;DHT22;11445;53.816;8.902;2022-12-16T00:47:59;0.10;99.90
22558;DHT22;11445;53.816;8.902;2022-12-16T00:50:26;0.00;99.90
22558;DHT22;11445;53.816;8.902;2022-12-16T00:52:53;0.00;99.90
22558;DHT22;11445;53.816;8.902;2022-12-16T00:55:22;0.00;99.90
22558;DHT22;11445;53.816;8.902;2022-12-16T00:57:49;0.00;99.90
22558;DHT22;11445;53.816;8.902;2022-12-16T01:00:17;-0.10;99.90
22558;DHT22;11445;53.816;8.902;2022-12-16T01:02:46;-0.10;99.90
22558;DHT22;11445;53.816;8.902;2022-12-16T01:05:16;-0.10;99.90
22558;DHT22;11445;53.816;8.902;2022-12-16T01:07:44;-0.20;99.90
22558;DHT22;11445;53.816;8.902;2022-12-16T01:10:11;-0.20;99.90
22558;DHT22;11445;53.816;8.902;2022-12-16T01:12:40;-0.20;99.90
22558;DHT22;11445;53.816;8.902;2022-12-16T01:15:08;-0.20;99.90
22558;DHT22;11445;53.816;8.902;2022-12-16T01:17:37;-0.30;99.90
22558;DHT22;11445;53.816;8.902;2022-12-16T01:20:05;-0.30;99.90
22558;DHT22;11445;53.816;8.902;2022-12-16T01:22:33;-0.20;99.90
22558;DHT22;11445;53.816;8.902;2022-12-16T01:25:00;-0.20;99.90
22558;DHT22;11445;53.816;8.902;2022-12-16T01:27:27;-0.30;99.90
22558;DHT22;11445;53.816;8.902;2022-12-16T01:29:56;-0.20;99.90
22558;DHT22;11445;53.816;8.902;2022-12-16T01:32:23;-0.20;99.90
22558;DHT22;11445;53.816;8.902;2022-12-16T01:34:50;-0.20;99.90
22558;DHT22;11445;53.816;8.902;2022-12-16T01:37:18;-0.30;99.90
22558;DHT22;11445;53.816;8.902;2022-12-16T01:39:45;-0.30;99.90
22558;DHT22;11445;53.816;8.902;2022-12-16T01:42:14;-0.20;99.90
22558;DHT22;11445;53.816;8.902;2022-12-16T01:44:43;-0.20;99.90
22558;DHT22;11445;53.816;8.902;2022-12-16T01:47:14;-0.30;99.90
22558;DHT22;11445;53.816;8.902;2022-12-16T01:49:43;-0.30;99.90
22558;DHT22;11445;53.816;8.902;2022-12-16T01:52:15;-0.30;99.90
22558;DHT22;11445;53.816;8.902;2022-12-16T01:54:47;-0.30;99.90
22558;DHT22;11445;53.816;8.902;2022-12-16T01:57:20;-0.20;99.90
22558;DHT22;11445;53.816;8.902;2022-12-16T01:59:50;-0.20;99.90
22558;DHT22;11445;53.816;8.902;2022-12-16T02:02:20;-0.20;99.90
22558;DHT22;11445;53.816;8.902;2022-12-16T02:04:47;-0.20;99.90
22558;DHT22;11445;53.816;8.902;2022-12-16T02:07:28;-0.20;99.90
22558;DHT22;11445;53.816;8.902;2022-12-16T02:09:56;-0.20;99.90
22558;DHT22;11445;53.816;8.902;2022-12-16T02:12:28;-0.20;99.90
22558;DHT22;11445;53.816;8.902;2022-12-16T02:15:10;-0.20;99.90
22558;DHT22;11445;53.816;8.902;2022-12-16T02:17:46;-0.10;99.90
22558;DHT22;11445;53.816;8.902;2022-12-16T02:20:31;-0.10;99.90
22558;DHT22;11445;53.816;8.902;2022-12-16T02:26:08;-0.10;99.90
22558;DHT22;11445;53.816;8.902;2022-12-16T02:28:52;-0.10;99.90
22558;DHT22;11445;53.816;8.902;2022-12-16T02:31:31;-0.10;99.90
22558;DHT22;11445;53.816;8.902;2022-12-16T02:34:12;-0.20;99.90
22558;DHT22;11445;53.816;8.902;2022-12-16T02:36:49;-0.20;99.90
22558;DHT22;11445;53.816;8.902;2022-12-16T02:39:21;-0.20;99.90
22558;DHT22;11445;53.816;8.902;2022-12-16T02:41:53;-0.20;99.90
22558;DHT22;11445;53.816;8.902;2022-12-16T02:44:27;-0.20;99.90
22558;DHT22;11445;53.816;8.902;2022-12-16T02:47:02;-0.20;99.90
22558;DHT22;11445;53.816;8.902;2022-12-16T02:49:47;-0.20;99.90
22558;DHT22;11445;53.816;8.902;2022-12-16T02:52:17;-0.30;99.90
22558;DHT22;11445;53.816;8.902;2022-12-16T02:54:45;-0.30;99.90
22558;DHT22;11445;53.816;8.902;2022-12-16T02:57:47;-0.30;99.90
22558;DHT22;11445;53.816;8.902;2022-12-16T03:00:18;-0.30;99.90
22558;DHT22;11445;53.816;8.902;2022-12-16T03:02:52;-0.30;99.90
22558;DHT22;11445;53.816;8.902;2022-12-16T03:05:24;-0.30;99.90
22558;DHT22;11445;53.816;8.902;2022-12-16T03:07:53;-0.30;99.90
22558;DHT22;11445;53.816;8.902;2022-12-16T03:10:25;-0.40;99.90
22558;DHT22;11445;53.816;8.902;2022-12-16T03:12:54;-0.40;99.90
22558;DHT22;11445;53.816;8.902;2022-12-16T03:15:25;-0.40;99.90
22558;DHT22;11445;53.816;8.902;2022-12-16T03:17:54;-0.40;99.90
22558;DHT22;11445;53.816;8.902;2022-12-16T03:20:26;-0.40;99.90
22558;DHT22;11445;53.816;8.902;2022-12-16T03:22:59;-0.40;99.90
22558;DHT22;11445;53.816;8.902;2022-12-16T03:25:28;-0.50;99.90
22558;DHT22;11445;53.816;8.902;2022-12-16T03:28:02;-0.50;99.90
22558;DHT22;11445;53.816;8.902;2022-12-16T03:30:33;-0.50;99.90
22558;DHT22;11445;53.816;8.902;2022-12-16T03:33:06;-0.50;99.90
22558;DHT22;11445;53.816;8.902;2022-12-16T03:35:38;-0.50;99.90
22558;DHT22;11445;53.816;8.902;2022-12-16T03:38:08;-0.50;99.90
22558;DHT22;11445;53.816;8.902;2022-12-16T03:40:37;-0.50;99.90
22558;DHT22;11445;53.816;8.902;2022-12-16T03:43:07;-0.50;99.90
22558;DHT22;11445;53.816;8.902;2022-12-16T03:45:38;-0.50;99.90
22558;DHT22;11445;53.816;8.902;2022-12-16T03:48:09;-0.50;99.90
22558;DHT22;11445;53.816;8.902;2022-12-16T03:50:37;-0.50;99.90
22558;DHT22;11445;53.816;8.902;2022-12-16T03:53:06;-0.50;99.90
22558;DHT22;11445;53.816;8.902;2022-12-16T03:55:33;-0.50;99.90
22558;DHT22;11445;53.816;8.902;2022-12-16T03:58:00;-0.50;99.90
22558;DHT22;11445;53.816;8.902;2022-12-16T04:00:27;-0.50;99.90
22558;DHT22;11445;53.816;8.902;2022-12-16T04:02:54;-0.50;99.90
22558;DHT22;11445;53.816;8.902;2022-12-16T04:05:23;-0.50;99.90
22558;DHT22;11445;53.816;8.902;2022-12-16T04:07:50;-0.40;99.90
22558;DHT22;11445;53.816;8.902;2022-12-16T04:10:17;-0.50;99.90
22558;DHT22;11445;53.816;8.902;2022-12-16T04:13:05;-0.50;99.90
22558;DHT22;11445;53.816;8.902;2022-12-16T04:15:49;-0.50;99.90
22558;DHT22;11445;53.816;8.902;2022-12-16T04:18:34;-0.50;99.90
22558;DHT22;11445;53.816;8.902;2022-12-16T04:21:20;-0.50;99.90
22558;DHT22;11445;53.816;8.902;2022-12-16T04:24:07;-0.50;99.90
22558;DHT22;11445;53.816;8.902;2022-12-16T04:26:49;-0.50;99.90
22558;DHT22;11445;53.816;8.902;2022-12-16T04:29:33;-0.50;99.90
22558;DHT22;11445;53.816;8.902;2022-12-16T04:32:20;-0.50;99.90
22558;DHT22;11445;53.816;8.902;2022-12-16T04:34:47;-0.50;99.90
22558;DHT22;11445;53.816;8.902;2022-12-16T04:37:15;-0.50;99.90
22558;DHT22;11445;53.816;8.902;2022-12-16T04:40:00;-0.50;99.90
22558;DHT22;11445;53.816;8.902;2022-12-16T04:42:52;-0.50;99.90
22558;DHT22;11445;53.816;8.902;2022-12-16T04:45:48;-0.50;99.90
22558;DHT22;11445;53.816;8.902;2022-12-16T04:48:33;-0.50;99.90
22558;DHT22;11445;53.816;8.902;2022-12-16T04:51:20;-0.50;99.90
22558;DHT22;11445;53.816;8.902;2022-12-16T04:54:05;-0.50;99.90
22558;DHT22;11445;53.816;8.902;2022-12-16T04:56:50;-0.50;99.90
22558;DHT22;11445;53.816;8.902;2022-12-16T04:59:34;-0.50;99.90
22558;DHT22;11445;53.816;8.902;2022-12-16T05:02:18;-0.50;99.90
22558;DHT22;11445;53.816;8.902;2022-12-16T05:05:03;-0.50;99.90
22558;DHT22;11445;53.816;8.902;2022-12-16T05:07:47;-0.50;99.90
22558;DHT22;11445;53.816;8.902;2022-12-16T05:10:33;-0.50;99.90
22558;DHT22;11445;53.816;8.902;2022-12-16T05:13:29;-0.50;99.90
22558;DHT22;11445;53.816;8.902;2022-12-16T05:16:13;-0.50;99.90
22558;DHT22;11445;53.816;8.902;2022-12-16T05:18:57;-0.50;99.90
22558;DHT22;11445;53.816;8.902;2022-12-16T05:21:42;-0.50;99.90
22558;DHT22;11445;53.816;8.902;2022-12-16T05:24:27;-0.40;99.90
22558;DHT22;11445;53.816;8.902;2022-12-16T05:27:24;-0.40;99.90
22558;DHT22;11445;53.816;8.902;2022-12-16T05:30:09;-0.40;99.90
22558;DHT22;11445;53.816;8.902;2022-12-16T05:32:54;-0.40;99.90
22558;DHT22;11445;53.816;8.902;2022-12-16T05:35:38;-0.40;99.90
22558;DHT22;11445;53.816;8.902;2022-12-16T05:38:22;-0.40;99.90
22558;DHT22;11445;53.816;8.902;2022-12-16T05:41:07;-0.40;99.90
22558;DHT22;11445;53.816;8.902;2022-12-16T05:43:52;-0.40;99.90
22558;DHT22;11445;53.816;8.902;2022-12-16T05:46:37;-0.40;99.90
22558;DHT22;11445;53.816;8.902;2022-12-16T05:49:21;-0.40;99.90
22558;DHT22;11445;53.816;8.902;2022-12-16T05:52:05;-0.40;99.90
22558;DHT22;11445;53.816;8.902;2022-12-16T05:54:50;-0.40;99.90
22558;DHT22;11445;53.816;8.902;2022-12-16T05:57:34;-0.40;99.90
22558;DHT22;11445;53.816;8.902;2022-12-16T06:00:20;-0.30;99.90
22558;DHT22;11445;53.816;8.902;2022-12-16T06:03:04;0.00;99.90
22558;DHT22;11445;53.816;8.902;2022-12-16T06:05:49;0.10;99.90
22558;DHT22;11445;53.816;8.902;2022-12-16T06:08:33;0.00;99.90
22558;DHT22;11445;53.816;8.902;2022-12-16T06:11:17;-0.10;99.90
22558;DHT22;11445;53.816;8.902;2022-12-16T06:14:02;-0.10;99.90
22558;DHT22;11445;53.816;8.902;2022-12-16T06:16:49;-0.20;99.90
22558;DHT22;11445;53.816;8.902;2022-12-16T06:19:33;-0.20;99.90
22558;DHT22;11445;53.816;8.902;2022-12-16T06:22:17;-0.30;99.90
22558;DHT22;11445;53.816;8.902;2022-12-16T06:25:02;-0.30;99.90
22558;DHT22;11445;53.816;8.902;2022-12-16T06:27:50;-0.30;99.90
22558;DHT22;11445;53.816;8.902;2022-12-16T06:30:35;-0.40;99.90
22558;DHT22;11445;53.816;8.902;2022-12-16T06:33:21;-0.40;99.90
22558;DHT22;11445;53.816;8.902;2022-12-16T06:36:06;-0.40;99.90
22558;DHT22;11445;53.816;8.902;2022-12-16T06:38:51;-0.40;99.90
22558;DHT22;11445;53.816;8.902;2022-12-16T06:41:35;-0.30;99.90
22558;DHT22;11445;53.816;8.902;2022-12-16T06:44:19;-0.20;99.90
22558;DHT22;11445;53.816;8.902;2022-12-16T06:47:04;-0.20;99.90
22558;DHT22;11445;53.816;8.902;2022-12-16T06:49:50;-0.20;99.90
22558;DHT22;11445;53.816;8.902;2022-12-16T06:52:34;-0.30;99.90
22558;DHT22;11445;53.816;8.902;2022-12-16T06:55:19;-0.30;99.90
22558;DHT22;11445;53.816;8.902;2022-12-16T06:58:04;-0.30;99.90
22558;DHT22;11445;53.816;8.902;2022-12-16T07:00:48;-0.30;99.90
22558;DHT22;11445;53.816;8.902;2022-12-16T07:03:32;-0.30;99.90
22558;DHT22;11445;53.816;8.902;2022-12-16T07:06:18;-0.30;99.90
22558;DHT22;11445;53.816;8.902;2022-12-16T07:09:03;-0.40;99.90
22558;DHT22;11445;53.816;8.902;2022-12-16T07:11:47;-0.40;99.90
22558;DHT22;11445;53.816;8.902;2022-12-16T07:14:31;-0.40;99.90
22558;DHT22;11445;53.816;8.902;2022-12-16T07:17:16;-0.40;99.90
22558;DHT22;11445;53.816;8.902;2022-12-16T07:20:00;-0.40;99.90
22558;DHT22;11445;53.816;8.902;2022-12-16T07:22:46;-0.40;99.90
22558;DHT22;11445;53.816;8.902;2022-12-16T07:25:30;-0.40;99.90
22558;DHT22;11445;53.816;8.902;2022-12-16T07:28:14;-0.40;99.90
22558;DHT22;11445;53.816;8.902;2022-12-16T07:30:59;-0.40;99.90
22558;DHT22;11445;53.816;8.902;2022-12-16T07:33:44;-0.40;99.90
22558;DHT22;11445;53.816;8.902;2022-12-16T07:36:33;-0.40;99.90
22558;DHT22;11445;53.816;8.902;2022-12-16T07:39:19;-0.50;99.90
22558;DHT22;11445;53.816;8.902;2022-12-16T07:42:04;-0.50;99.90
22558;DHT22;11445;53.816;8.902;2022-12-16T07:44:48;-0.50;99.90
22558;DHT22;11445;53.816;8.902;2022-12-16T07:47:33;-0.50;99.90
22558;DHT22;11445;53.816;8.902;2022-12-16T07:50:17;-0.50;99.90
22558;DHT22;11445;53.816;8.902;2022-12-16T07:53:02;-0.40;99.90
22558;DHT22;11445;53.816;8.902;2022-12-16T07:55:48;-0.40;99.90
22558;DHT22;11445;53.816;8.902;2022-12-16T07:58:32;-0.40;99.90
22558;DHT22;11445;53.816;8.902;2022-12-16T08:01:16;-0.40;99.90
22558;DHT22;11445;53.816;8.902;2022-12-16T08:04:01;-0.40;99.90
22558;DHT22;11445;53.816;8.902;2022-12-16T08:06:45;-0.40;99.90
22558;DHT22;11445;53.816;8.902;2022-12-16T08:09:30;-0.40;99.90
22558;DHT22;11445;53.816;8.902;2022-12-16T08:12:16;-0.40;99.90
22558;DHT22;11445;53.816;8.902;2022-12-16T08:15:00;-0.40;99.90
22558;DHT22;11445;53.816;8.902;2022-12-16T08:17:48;-0.30;99.90
22558;DHT22;11445;53.816;8.902;2022-12-16T08:20:33;-0.30;99.90
22558;DHT22;11445;53.816;8.902;2022-12-16T08:23:29;-0.30;99.90
22558;DHT22;11445;53.816;8.902;2022-12-16T08:26:13;-0.30;99.90
22558;DHT22;11445;53.816;8.902;2022-12-16T08:28:59;-0.30;99.90
22558;DHT22;11445;53.816;8.902;2022-12-16T08:31:43;-0.30;99.90
22558;DHT22;11445;53.816;8.902;2022-12-16T08:34:27;-0.30;99.90
22558;DHT22;11445;53.816;8.902;2022-12-16T08:37:12;-0.30;99.90
22558;DHT22;11445;53.816;8.902;2022-12-16T08:39:56;-0.30;99.90
22558;DHT22;11445;53.816;8.902;2022-12-16T08:42:41;-0.20;99.90
22558;DHT22;11445;53.816;8.902;2022-12-16T08:45:27;-0.20;99.90
22558;DHT22;11445;53.816;8.902;2022-12-16T08:48:11;-0.20;99.90
22558;DHT22;11445;53.816;8.902;2022-12-16T08:50:59;-0.20;99.90
22558;DHT22;11445;53.816;8.902;2022-12-16T08:53:43;-0.20;99.90
22558;DHT22;11445;53.816;8.902;2022-12-16T08:56:28;-0.10;99.90
22558;DHT22;11445;53.816;8.902;2022-12-16T08:59:25;-0.10;99.90
22558;DHT22;11445;53.816;8.902;2022-12-16T09:02:11;-0.10;99.90
22558;DHT22;11445;53.816;8.902;2022-12-16T09:04:55;-0.10;99.90
22558;DHT22;11445;53.816;8.902;2022-12-16T09:07:39;-0.10;99.90
22558;DHT22;11445;53.816;8.902;2022-12-16T09:10:24;0.00;99.90
22558;DHT22;11445;53.816;8.902;2022-12-16T09:13:11;0.00;99.90
22558;DHT22;11445;53.816;8.902;2022-12-16T09:15:56;0.00;99.90
22558;DHT22;11445;53.816;8.902;2022-12-16T09:18:42;0.00;99.90
22558;DHT22;11445;53.816;8.902;2022-12-16T09:21:26;0.10;99.90
22558;DHT22;11445;53.816;8.902;2022-12-16T09:24:10;0.10;99.90
22558;DHT22;11445;53.816;8.902;2022-12-16T09:26:55;0.10;99.90
22558;DHT22;11445;53.816;8.902;2022-12-16T09:29:39;0.10;99.90
22558;DHT22;11445;53.816;8.902;2022-12-16T09:32:24;0.10;99.90
22558;DHT22;11445;53.816;8.902;2022-12-16T09:35:10;0.10;99.90
22558;DHT22;11445;53.816;8.902;2022-12-16T09:37:55;0.20;99.90
22558;DHT22;11445;53.816;8.902;2022-12-16T09:40:40;0.20;99.90
22558;DHT22;11445;53.816;8.902;2022-12-16T09:43:39;0.20;99.90
22558;DHT22;11445;53.816;8.902;2022-12-16T09:46:33;0.20;99.90
22558;DHT22;11445;53.816;8.902;2022-12-16T09:49:28;0.20;99.90
22558;DHT22;11445;53.816;8.902;2022-12-16T09:52:20;0.20;99.90
22558;DHT22;11445;53.816;8.902;2022-12-16T09:55:16;0.20;99.90
22558;DHT22;11445;53.816;8.902;2022-12-16T09:58:02;0.20;99.90
22558;DHT22;11445;53.816;8.902;2022-12-16T10:00:47;0.20;99.90
22558;DHT22;11445;53.816;8.902;2022-12-16T10:03:35;0.20;99.90
22558;DHT22;11445;53.816;8.902;2022-12-16T10:06:29;0.20;99.90
22558;DHT22;11445;53.816;8.902;2022-12-16T10:09:23;0.30;99.90
22558;DHT22;11445;53.816;8.902;2022-12-16T10:12:15;0.50;99.90
22558;DHT22;11445;53.816;8.902;2022-12-16T10:15:10;0.50;99.90
22558;DHT22;11445;53.816;8.902;2022-12-16T10:17:59;0.40;99.90
22558;DHT22;11445;53.816;8.902;2022-12-16T10:20:48;0.40;99.90
22558;DHT22;11445;53.816;8.902;2022-12-16T10:23:38;0.40;99.90
22558;DHT22;11445;53.816;8.902;2022-12-16T10:26:48;0.30;99.90
22558;DHT22;11445;53.816;8.902;2022-12-16T10:29:38;0.30;99.90
22558;DHT22;11445;53.816;8.902;2022-12-16T10:32:28;0.30;99.90
22558;DHT22;11445;53.816;8.902;2022-12-16T10:35:20;0.20;99.90
22558;DHT22;11445;53.816;8.902;2022-12-16T10:38:11;0.20;99.90
22558;DHT22;11445;53.816;8.902;2022-12-16T10:40:58;0.20;99.90
22558;DHT22;11445;53.816;8.902;2022-12-16T10:43:47;0.20;99.90
22558;DHT22;11445;53.816;8.902;2022-12-16T10:46:34;0.10;99.90
22558;DHT22;11445;53.816;8.902;2022-12-16T10:49:19;0.20;99.90
22558;DHT22;11445;53.816;8.902;2022-12-16T10:52:04;0.20;99.90
22558;DHT22;11445;53.816;8.902;2022-12-16T10:54:55;0.20;99.90
22558;DHT22;11445;53.816;8.902;2022-12-16T10:57:49;0.20;99.90
22558;DHT22;11445;53.816;8.902;2022-12-16T11:00:43;0.20;99.90
22558;DHT22;11445;53.816;8.902;2022-12-16T11:03:30;0.30;99.90
22558;DHT22;11445;53.816;8.902;2022-12-16T11:06:18;0.20;99.90
22558;DHT22;11445;53.816;8.902;2022-12-16T11:09:20;0.30;99.90
22558;DHT22;11445;53.816;8.902;2022-12-16T11:12:20;0.20;99.90
22558;DHT22;11445;53.816;8.902;2022-12-16T11:15:18;0.20;99.90
22558;DHT22;11445;53.816;8.902;2022-12-16T11:18:05;0.20;99.90
22558;DHT22;11445;53.816;8.902;2022-12-16T11:21:04;0.20;99.90
22558;DHT22;11445;53.816;8.902;2022-12-16T11:24:10;0.30;99.90
22558;DHT22;11445;53.816;8.902;2022-12-16T11:26:56;0.30;99.90
22558;DHT22;11445;53.816;8.902;2022-12-16T11:29:52;0.30;99.90
22558;DHT22;11445;53.816;8.902;2022-12-16T11:32:51;0.30;99.90
22558;DHT22;11445;53.816;8.902;2022-12-16T11:35:42;0.30;99.90
22558;DHT22;11445;53.816;8.902;2022-12-16T11:38:31;0.30;99.90
22558;DHT22;11445;53.816;8.902;2022-12-16T11:41:38;0.30;99.90
22558;DHT22;11445;53.816;8.902;2022-12-16T11:44:28;0.40;99.90
22558;DHT22;11445;53.816;8.902;2022-12-16T11:47:21;0.40;99.90
22558;DHT22;11445;53.816;8.902;2022-12-16T11:50:10;0.40;99.90
22558;DHT22;11445;53.816;8.902;2022-12-16T11:53:24;0.50;99.90
22558;DHT22;11445;53.816;8.902;2022-12-16T11:56:13;0.50;99.90
22558;DHT22;11445;53.816;8.902;2022-12-16T11:59:03;0.50;99.90
22558;DHT22;11445;53.816;8.902;2022-12-16T12:01:52;0.50;99.90
22558;DHT22;11445;53.816;8.902;2022-12-16T12:04:39;0.50;99.90
22558;DHT22;11445;53.816;8.902;2022-12-16T12:07:26;0.50;99.90
22558;DHT22;11445;53.816;8.902;2022-12-16T12:10:42;0.50;99.90
22558;DHT22;11445;53.816;8.902;2022-12-16T12:13:42;0.50;99.90
22558;DHT22;11445;53.816;8.902;2022-12-16T12:16:38;0.60;99.90
22558;DHT22;11445;53.816;8.902;2022-12-16T12:19:35;0.60;99.90
22558;DHT22;11445;53.816;8.902;2022-12-16T12:22:30;1.20;99.90
22558;DHT22;11445;53.816;8.902;2022-12-16T12:25:22;1.20;99.90
22558;DHT22;11445;53.816;8.902;2022-12-16T12:28:18;1.30;99.90
22558;DHT22;11445;53.816;8.902;2022-12-16T12:31:13;1.20;99.90
22558;DHT22;11445;53.816;8.902;2022-12-16T12:34:06;1.10;99.90
22558;DHT22;11445;53.816;8.902;2022-12-16T12:37:02;1.10;99.90
22558;DHT22;11445;53.816;8.902;2022-12-16T12:39:51;1.00;99.90
22558;DHT22;11445;53.816;8.902;2022-12-16T12:42:43;1.20;99.90
22558;DHT22;11445;53.816;8.902;2022-12-16T12:45:51;1.40;99.90
22558;DHT22;11445;53.816;8.902;2022-12-16T12:48:42;1.40;99.90
22558;DHT22;11445;53.816;8.902;2022-12-16T12:51:36;1.30;99.90
22558;DHT22;11445;53.816;8.902;2022-12-16T12:54:31;1.20;99.90
22558;DHT22;11445;53.816;8.902;2022-12-16T12:57:19;1.20;99.90
22558;DHT22;11445;53.816;8.902;2022-12-16T13:00:14;1.20;99.90
22558;DHT22;11445;53.816;8.902;2022-12-16T13:03:04;1.20;99.90
22558;DHT22;11445;53.816;8.902;2022-12-16T13:05:50;1.10;99.90
22558;DHT22;11445;53.816;8.902;2022-12-16T13:15:17;1.50;99.90
22558;DHT22;11445;53.816;8.902;2022-12-16T13:18:20;1.40;99.90
22558;DHT22;11445;53.816;8.902;2022-12-16T13:24:44;1.40;99.90
22558;DHT22;11445;53.816;8.902;2022-12-16T13:27:45;1.80;99.90
22558;DHT22;11445;53.816;8.902;2022-12-16T13:30:31;1.90;99.90
22558;DHT22;11445;53.816;8.902;2022-12-16T13:33:24;1.70;99.90
22558;DHT22;11445;53.816;8.902;2022-12-16T13:36:10;1.60;99.90
22558;DHT22;11445;53.816;8.902;2022-12-16T13:38:57;1.50;99.90
22558;DHT22;11445;53.816;8.902;2022-12-16T13:41:48;1.30;99.90
22558;DHT22;11445;53.816;8.902;2022-12-16T13:44:58;1.20;99.90
22558;DHT22;11445;53.816;8.902;2022-12-16T13:48:03;1.00;99.90
22558;DHT22;11445;53.816;8.902;2022-12-16T13:50:50;0.90;99.90
22558;DHT22;11445;53.816;8.902;2022-12-16T13:53:40;0.90;99.90
22558;DHT22;11445;53.816;8.902;2022-12-16T13:56:31;0.80;99.90
22558;DHT22;11445;53.816;8.902;2022-12-16T13:59:20;0.80;99.90
22558;DHT22;11445;53.816;8.902;2022-12-16T14:02:18;0.70;99.90
22558;DHT22;11445;53.816;8.902;2022-12-16T14:05:15;0.70;99.90
22558;DHT22;11445;53.816;8.902;2022-12-16T14:08:03;0.70;99.90
22558;DHT22;11445;53.816;8.902;2022-12-16T14:10:55;0.60;99.90
22558;DHT22;11445;53.816;8.902;2022-12-16T14:13:43;0.50;99.90
22558;DHT22;11445;53.816;8.902;2022-12-16T14:16:37;0.50;99.90
22558;DHT22;11445;53.816;8.902;2022-12-16T14:19:28;0.50;99.90
22558;DHT22;11445;53.816;8.902;2022-12-16T14:22:27;0.50;99.90
22558;DHT22;11445;53.816;8.902;2022-12-16T14:25:18;0.50;99.90
22558;DHT22;11445;53.816;8.902;2022-12-16T14:28:07;0.50;99.90
22558;DHT22;11445;53.816;8.902;2022-12-16T14:31:03;0.50;99.90
22558;DHT22;11445;53.816;8.902;2022-12-16T14:33:51;0.40;99.90
22558;DHT22;11445;53.816;8.902;2022-12-16T14:36:38;0.40;99.90
22558;DHT22;11445;53.816;8.902;2022-12-16T14:39:27;0.40;99.90
22558;DHT22;11445;53.816;8.902;2022-12-16T14:42:18;0.70;99.90
22558;DHT22;11445;53.816;8.902;2022-12-16T14:45:03;0.80;99.90
22558;DHT22;11445;53.816;8.902;2022-12-16T14:47:48;0.70;99.90
22558;DHT22;11445;53.816;8.902;2022-12-16T14:50:32;0.70;99.90
22558;DHT22;11445;53.816;8.902;2022-12-16T14:53:19;0.60;99.90
22558;DHT22;11445;53.816;8.902;2022-12-16T14:56:15;0.50;99.90
22558;DHT22;11445;53.816;8.902;2022-12-16T14:59:12;0.40;99.90
22558;DHT22;11445;53.816;8.902;2022-12-16T15:01:59;0.40;99.90
22558;DHT22;11445;53.816;8.902;2022-12-16T15:04:45;0.40;99.90
22558;DHT22;11445;53.816;8.902;2022-12-16T15:07:34;0.40;99.90
22558;DHT22;11445;53.816;8.902;2022-12-16T15:10:21;0.40;99.90
22558;DHT22;11445;53.816;8.902;2022-12-16T15:13:13;0.40;99.90
22558;DHT22;11445;53.816;8.902;2022-12-16T15:16:00;0.40;99.90
22558;DHT22;11445;53.816;8.902;2022-12-16T15:18:56;0.30;99.90
22558;DHT22;11445;53.816;8.902;2022-12-16T15:21:42;0.40;99.90
22558;DHT22;11445;53.816;8.902;2022-12-16T15:24:38;0.40;99.90
22558;DHT22;11445;53.816;8.902;2022-12-16T15:27:24;0.40;99.90
22558;DHT22;11445;53.816;8.902;2022-12-16T15:30:31;0.30;99.90
22558;DHT22;11445;53.816;8.902;2022-12-16T15:33:20;0.30;99.90
22558;DHT22;11445;53.816;8.902;2022-12-16T15:36:05;0.30;99.90
22558;DHT22;11445;53.816;8.902;2022-12-16T15:38:55;0.30;99.90
22558;DHT22;11445;53.816;8.902;2022-12-16T15:41:45;0.30;99.90
22558;DHT22;11445;53.816;8.902;2022-12-16T15:44:30;0.30;99.90
22558;DHT22;11445;53.816;8.902;2022-12-16T15:47:27;0.30;99.90
22558;DHT22;11445;53.816;8.902;2022-12-16T15:50:15;0.20;99.90
22558;DHT22;11445;53.816;8.902;2022-12-16T15:53:14;0.50;99.90
22558;DHT22;11445;53.816;8.902;2022-12-16T15:55:59;0.70;99.90
22558;DHT22;11445;53.816;8.902;2022-12-16T15:58:43;0.60;99.90
22558;DHT22;11445;53.816;8.902;2022-12-16T16:01:38;0.50;99.90
22558;DHT22;11445;53.816;8.902;2022-12-16T16:04:38;0.40;99.90
22558;DHT22;11445;53.816;8.902;2022-12-16T16:07:23;0.40;99.90
22558;DHT22;11445;53.816;8.902;2022-12-16T16:10:14;0.30;99.90
22558;DHT22;11445;53.816;8.902;2022-12-16T16:12:58;0.40;99.90
22558;DHT22;11445;53.816;8.902;2022-12-16T16:15:43;0.80;99.90
22558;DHT22;11445;53.816;8.902;2022-12-16T16:18:27;1.00;99.90
22558;DHT22;11445;53.816;8.902;2022-12-16T16:21:23;1.00;99.90
22558;DHT22;11445;53.816;8.902;2022-12-16T16:24:09;0.80;99.90
22558;DHT22;11445;53.816;8.902;2022-12-16T16:26:53;0.60;99.90
22558;DHT22;11445;53.816;8.902;2022-12-16T16:29:38;0.40;99.90
22558;DHT22;11445;53.816;8.902;2022-12-16T16:32:23;0.30;99.90
22558;DHT22;11445;53.816;8.902;2022-12-16T16:35:07;0.10;99.90
22558;DHT22;11445;53.816;8.902;2022-12-16T16:37:57;0.00;99.90
22558;DHT22;11445;53.816;8.902;2022-12-16T16:40:43;-0.10;99.90
22558;DHT22;11445;53.816;8.902;2022-12-16T16:43:28;-0.10;99.90
22558;DHT22;11445;53.816;8.902;2022-12-16T16:46:27;-0.20;99.90
22558;DHT22;11445;53.816;8.902;2022-12-16T16:49:19;-0.20;99.90
22558;DHT22;11445;53.816;8.902;2022-12-16T16:52:04;0.20;99.90
22558;DHT22;11445;53.816;8.902;2022-12-16T16:54:50;0.20;99.90
22558;DHT22;11445;53.816;8.902;2022-12-16T16:57:36;0.20;99.90
22558;DHT22;11445;53.816;8.902;2022-12-16T17:00:21;0.10;99.90
22558;DHT22;11445;53.816;8.902;2022-12-16T17:03:05;0.00;99.90
22558;DHT22;11445;53.816;8.902;2022-12-16T17:05:50;-0.10;99.90
22558;DHT22;11445;53.816;8.902;2022-12-16T17:08:34;-0.10;99.90
22558;DHT22;11445;53.816;8.902;2022-12-16T17:11:20;-0.10;99.90
22558;DHT22;11445;53.816;8.902;2022-12-16T17:14:11;-0.20;99.90
22558;DHT22;11445;53.816;8.902;2022-12-16T17:16:55;-0.20;99.90
22558;DHT22;11445;53.816;8.902;2022-12-16T17:19:40;-0.20;99.90
22558;DHT22;11445;53.816;8.902;2022-12-16T17:22:24;-0.20;99.90
22558;DHT22;11445;53.816;8.902;2022-12-16T17:25:09;-0.30;99.90
22558;DHT22;11445;53.816;8.902;2022-12-16T17:27:53;-0.30;99.90
22558;DHT22;11445;53.816;8.902;2022-12-16T17:30:39;-0.30;99.90
22558;DHT22;11445;53.816;8.902;2022-12-16T17:33:35;-0.30;99.90
22558;DHT22;11445;53.816;8.902;2022-12-16T17:36:20;-0.30;99.90